sensor_id;sensor_type;location;lat;lon;timestamp;P1;durP1;ratioP1;P2;durP2;ratioP2
5833;SDS011;2943;48.012;10.968;2023-01-28T00:00:31;28.47;;;16.07;;
5833;SDS011;2943;48.012;10.968;2023-01-28T00:02:58;35.37;;;17.00;;
5833;SDS011;2943;48.012;10.968;2023-01-28T00:05:25;34.03;;;18.43;;
5833;SDS011;2943;48.012;10.968;2023-01-28T00:07:53;36.80;;;19.07;;
5833;SDS011;2943;48.012;10.968;2023-01-28T00:10:20;40.03;;;18.30;;
5833;SDS011;2943;48.012;10.968;2023-01-28T00:12:47;36.33;;;18.13;;
5833;SDS011;2943;48.012;10.968;2023-01-28T00:15:16;33.80;;;18.53;;
5833;SDS011;2943;48.012;10.968;2023-01-28T00:17:43;34.87;;;18.50;;
5833;SDS011;2943;48.012;10.968;2023-01-28T00:20:10;44.33;;;20.63;;
5833;SDS011;2943;48.012;10.968;2023-01-28T00:22:37;40.67;;;21.60;;
5833;SDS011;2943;48.012;10.968;2023-01-28T00:25:03;38.20;;;18.20;;
5833;SDS011;2943;48.012;10.968;2023-01-28T00:27:30;39.33;;;18.80;;
5833;SDS011;2943;48.012;10.968;2023-01-28T00:29:57;42.80;;;20.50;;
5833;SDS011;2943;48.012;10.968;2023-01-28T00:32:25;39.33;;;19.37;;
5833;SDS011;2943;48.012;10.968;2023-01-28T00:34:52;37.03;;;19.07;;
5833;SDS011;2943;48.012;10.968;2023-01-28T00:37:19;33.13;;;17.73;;
5833;SDS011;2943;48.012;10.968;2023-01-28T00:39:45;35.77;;;18.57;;
5833;SDS011;2943;48.012;10.968;2023-01-28T00:42:12;32.00;;;18.50;;
5833;SDS011;2943;48.012;10.968;2023-01-28T00:44:39;37.00;;;19.07;;
5833;SDS011;2943;48.012;10.968;2023-01-28T00:47:06;33.40;;;16.80;;
5833;SDS011;2943;48.012;10.968;2023-01-28T00:49:35;35.90;;;17.53;;
5833;SDS011;2943;48.012;10.968;2023-01-28T00:52:01;36.77;;;18.80;;
5833;SDS011;2943;48.012;10.968;2023-01-28T00:54:28;40.87;;;19.73;;
5833;SDS011;2943;48.012;10.968;2023-01-28T00:56:56;37.43;;;17.83;;
5833;SDS011;2943;48.012;10.968;2023-01-28T00:59:22;31.87;;;17.70;;
5833;SDS011;2943;48.012;10.968;2023-01-28T01:01:49;31.20;;;17.53;;
5833;SDS011;2943;48.012;10.968;2023-01-28T01:04:16;37.70;;;19.90;;
5833;SDS011;2943;48.012;10.968;2023-01-28T01:06:51;31.70;;;17.97;;
5833;SDS011;2943;48.012;10.968;2023-01-28T01:09:18;31.67;;;17.93;;
5833;SDS011;2943;48.012;10.968;2023-01-28T01:11:46;37.53;;;19.47;;
5833;SDS011;2943;48.012;10.968;2023-01-28T01:14:13;34.27;;;17.57;;
5833;SDS011;2943;48.012;10.968;2023-01-28T01:16:39;39.40;;;19.33;;
5833;SDS011;2943;48.012;10.968;2023-01-28T01:19:06;30.10;;;17.60;;
5833;SDS011;2943;48.012;10.968;2023-01-28T01:21:34;29.20;;;16.63;;
5833;SDS011;2943;48.012;10.968;2023-01-28T01:24:02;33.70;;;18.17;;
5833;SDS011;2943;48.012;10.968;2023-01-28T01:26:29;30.13;;;16.00;;
5833;SDS011;2943;48.012;10.968;2023-01-28T01:28:55;32.30;;;16.43;;
5833;SDS011;2943;48.012;10.968;2023-01-28T01:31:22;30.83;;;17.17;;
5833;SDS011;2943;48.012;10.968;2023-01-28T01:33:50;35.70;;;18.13;;
5833;SDS011;2943;48.012;10.968;2023-01-28T01:36:17;31.60;;;17.00;;
5833;SDS011;2943;48.012;10.968;2023-01-28T01:38:45;32.87;;;16.80;;
5833;SDS011;2943;48.012;10.968;2023-01-28T01:41:19;32.07;;;17.47;;
5833;SDS011;2943;48.012;10.968;2023-01-28T01:43:50;34.77;;;19.17;;
5833;SDS011;2943;48.012;10.968;2023-01-28T01:46:19;37.63;;;18.13;;
5833;SDS011;2943;48.012;10.968;2023-01-28T01:48:49;44.33;;;19.70;;
5833;SDS011;2943;48.012;10.968;2023-01-28T01:51:18;32.40;;;17.60;;
5833;SDS011;2943;48.012;10.968;2023-01-28T01:53:48;34.43;;;17.70;;
5833;SDS011;2943;48.012;10.968;2023-01-28T01:56:20;37.30;;;18.50;;
5833;SDS011;2943;48.012;10.968;2023-01-28T01:58:51;40.03;;;19.17;;
5833;SDS011;2943;48.012;10.968;2023-01-28T02:01:20;36.50;;;19.27;;
5833;SDS011;2943;48.012;10.968;2023-01-28T02:03:52;33.77;;;18.83;;
5833;SDS011;2943;48.012;10.968;2023-01-28T02:06:22;36.00;;;19.10;;
5833;SDS011;2943;48.012;10.968;2023-01-28T02:08:52;36.87;;;19.77;;
5833;SDS011;2943;48.012;10.968;2023-01-28T02:11:21;38.53;;;21.00;;
5833;SDS011;2943;48.012;10.968;2023-01-28T02:13:51;37.83;;;19.60;;
5833;SDS011;2943;48.012;10.968;2023-01-28T02:16:21;30.03;;;16.70;;
5833;SDS011;2943;48.012;10.968;2023-01-28T02:18:48;34.47;;;17.93;;
5833;SDS011;2943;48.012;10.968;2023-01-28T02:21:21;37.57;;;18.97;;
5833;SDS011;2943;48.012;10.968;2023-01-28T02:24:18;35.20;;;17.73;;
5833;SDS011;2943;48.012;10.968;2023-01-28T02:27:15;36.60;;;19.20;;
5833;SDS011;2943;48.012;10.968;2023-01-28T02:29:49;33.60;;;17.87;;
5833;SDS011;2943;48.012;10.968;2023-01-28T02:32:23;36.67;;;19.20;;
5833;SDS011;2943;48.012;10.968;2023-01-28T02:34:55;34.53;;;17.73;;
5833;SDS011;2943;48.012;10.968;2023-01-28T02:37:26;37.97;;;19.50;;
5833;SDS011;2943;48.012;10.968;2023-01-28T02:40:00;35.03;;;19.67;;
5833;SDS011;2943;48.012;10.968;2023-01-28T02:42:30;35.93;;;19.20;;
5833;SDS011;2943;48.012;10.968;2023-01-28T02:45:01;42.80;;;18.70;;
5833;SDS011;2943;48.012;10.968;2023-01-28T02:47:28;34.97;;;17.83;;
5833;SDS011;2943;48.012;10.968;2023-01-28T02:50:13;31.40;;;16.93;;
5833;SDS011;2943;48.012;10.968;2023-01-28T02:52:48;37.07;;;19.03;;
5833;SDS011;2943;48.012;10.968;2023-01-28T02:55:46;36.07;;;20.57;;
5833;SDS011;2943;48.012;10.968;2023-01-28T02:58:21;35.57;;;19.67;;
5833;SDS011;2943;48.012;10.968;2023-01-28T03:00:59;34.17;;;19.03;;
5833;SDS011;2943;48.012;10.968;2023-01-28T03:03:37;39.80;;;19.63;;
5833;SDS011;2943;48.012;10.968;2023-01-28T03:06:12;37.63;;;19.70;;
5833;SDS011;2943;48.012;10.968;2023-01-28T03:08:45;44.63;;;21.30;;
5833;SDS011;2943;48.012;10.968;2023-01-28T03:11:33;37.83;;;19.33;;
5833;SDS011;2943;48.012;10.968;2023-01-28T03:14:20;38.53;;;19.80;;
5833;SDS011;2943;48.012;10.968;2023-01-28T03:17:08;43.27;;;20.80;;
5833;SDS011;2943;48.012;10.968;2023-01-28T03:19:58;36.80;;;19.37;;
5833;SDS011;2943;48.012;10.968;2023-01-28T03:22:43;37.07;;;19.00;;
5833;SDS011;2943;48.012;10.968;2023-01-28T03:25:30;41.90;;;20.90;;
5833;SDS011;2943;48.012;10.968;2023-01-28T03:28:18;35.10;;;18.97;;
5833;SDS011;2943;48.012;10.968;2023-01-28T03:31:06;41.40;;;21.33;;
5833;SDS011;2943;48.012;10.968;2023-01-28T03:33:54;39.07;;;19.67;;
5833;SDS011;2943;48.012;10.968;2023-01-28T03:36:41;49.40;;;21.80;;
5833;SDS011;2943;48.012;10.968;2023-01-28T03:39:15;50.57;;;23.17;;
5833;SDS011;2943;48.012;10.968;2023-01-28T03:41:54;44.67;;;22.30;;
5833;SDS011;2943;48.012;10.968;2023-01-28T03:44:22;45.43;;;21.93;;
5833;SDS011;2943;48.012;10.968;2023-01-28T03:47:07;40.07;;;21.67;;
5833;SDS011;2943;48.012;10.968;2023-01-28T03:49:37;44.20;;;23.13;;
5833;SDS011;2943;48.012;10.968;2023-01-28T03:52:05;41.57;;;20.00;;
5833;SDS011;2943;48.012;10.968;2023-01-28T03:54:31;47.17;;;21.97;;
5833;SDS011;2943;48.012;10.968;2023-01-28T03:56:58;45.20;;;22.47;;
5833;SDS011;2943;48.012;10.968;2023-01-28T03:59:25;43.97;;;21.30;;
5833;SDS011;2943;48.012;10.968;2023-01-28T04:01:51;39.50;;;20.20;;
5833;SDS011;2943;48.012;10.968;2023-01-28T04:04:19;39.03;;;20.53;;
5833;SDS011;2943;48.012;10.968;2023-01-28T04:06:50;37.40;;;21.03;;
5833;SDS011;2943;48.012;10.968;2023-01-28T04:09:17;41.90;;;21.33;;
5833;SDS011;2943;48.012;10.968;2023-01-28T04:11:43;40.13;;;21.07;;
5833;SDS011;2943;48.012;10.968;2023-01-28T04:14:10;33.90;;;18.60;;
5833;SDS011;2943;48.012;10.968;2023-01-28T04:16:37;44.43;;;20.97;;
5833;SDS011;2943;48.012;10.968;2023-01-28T04:19:04;36.53;;;19.60;;
5833;SDS011;2943;48.012;10.968;2023-01-28T04:21:31;39.23;;;18.77;;
5833;SDS011;2943;48.012;10.968;2023-01-28T04:23:59;49.87;;;21.40;;
5833;SDS011;2943;48.012;10.968;2023-01-28T04:26:26;43.43;;;20.97;;
5833;SDS011;2943;48.012;10.968;2023-01-28T04:28:52;38.27;;;21.00;;
5833;SDS011;2943;48.012;10.968;2023-01-28T04:31:19;36.37;;;18.50;;
5833;SDS011;2943;48.012;10.968;2023-01-28T04:33:47;36.67;;;18.40;;
5833;SDS011;2943;48.012;10.968;2023-01-28T04:36:14;40.47;;;19.60;;
5833;SDS011;2943;48.012;10.968;2023-01-28T04:38:41;33.57;;;17.80;;
5833;SDS011;2943;48.012;10.968;2023-01-28T04:41:09;41.47;;;20.20;;
5833;SDS011;2943;48.012;10.968;2023-01-28T04:43:36;35.40;;;18.10;;
5833;SDS011;2943;48.012;10.968;2023-01-28T04:46:03;34.37;;;18.20;;
5833;SDS011;2943;48.012;10.968;2023-01-28T04:48:29;37.40;;;19.27;;
5833;SDS011;2943;48.012;10.968;2023-01-28T04:50:56;45.37;;;20.23;;
5833;SDS011;2943;48.012;10.968;2023-01-28T04:53:23;35.30;;;18.53;;
5833;SDS011;2943;48.012;10.968;2023-01-28T04:55:50;38.83;;;19.77;;
5833;SDS011;2943;48.012;10.968;2023-01-28T04:58:18;41.67;;;19.93;;
5833;SDS011;2943;48.012;10.968;2023-01-28T05:00:45;37.37;;;19.47;;
5833;SDS011;2943;48.012;10.968;2023-01-28T05:03:12;40.57;;;20.60;;
5833;SDS011;2943;48.012;10.968;2023-01-28T05:05:39;35.50;;;17.50;;
5833;SDS011;2943;48.012;10.968;2023-01-28T05:08:05;40.57;;;20.90;;
5833;SDS011;2943;48.012;10.968;2023-01-28T05:10:32;34.57;;;18.47;;
5833;SDS011;2943;48.012;10.968;2023-01-28T05:12:59;37.60;;;18.17;;
5833;SDS011;2943;48.012;10.968;2023-01-28T05:15:27;37.27;;;18.47;;
5833;SDS011;2943;48.012;10.968;2023-01-28T05:17:53;40.73;;;18.70;;
5833;SDS011;2943;48.012;10.968;2023-01-28T05:20:21;31.37;;;17.83;;
5833;SDS011;2943;48.012;10.968;2023-01-28T05:22:47;34.30;;;17.73;;
5833;SDS011;2943;48.012;10.968;2023-01-28T05:25:14;33.67;;;18.23;;
5833;SDS011;2943;48.012;10.968;2023-01-28T05:27:41;32.47;;;17.67;;
5833;SDS011;2943;48.012;10.968;2023-01-28T05:30:08;35.37;;;17.40;;
5833;SDS011;2943;48.012;10.968;2023-01-28T05:32:37;33.70;;;18.03;;
5833;SDS011;2943;48.012;10.968;2023-01-28T05:35:04;36.67;;;18.50;;
5833;SDS011;2943;48.012;10.968;2023-01-28T05:37:31;32.20;;;17.47;;
5833;SDS011;2943;48.012;10.968;2023-01-28T05:39:58;35.23;;;17.97;;
5833;SDS011;2943;48.012;10.968;2023-01-28T05:42:25;27.83;;;15.07;;
5833;SDS011;2943;48.012;10.968;2023-01-28T05:44:51;28.27;;;15.33;;
5833;SDS011;2943;48.012;10.968;2023-01-28T05:47:18;35.30;;;17.43;;
5833;SDS011;2943;48.012;10.968;2023-01-28T05:49:47;33.67;;;17.47;;
5833;SDS011;2943;48.012;10.968;2023-01-28T05:52:13;29.50;;;15.73;;
5833;SDS011;2943;48.012;10.968;2023-01-28T05:54:40;34.30;;;16.60;;
5833;SDS011;2943;48.012;10.968;2023-01-28T05:57:07;35.70;;;16.80;;
5833;SDS011;2943;48.012;10.968;2023-01-28T05:59:33;35.93;;;18.00;;
5833;SDS011;2943;48.012;10.968;2023-01-28T06:02:00;34.90;;;18.27;;
5833;SDS011;2943;48.012;10.968;2023-01-28T06:04:27;36.23;;;18.60;;
5833;SDS011;2943;48.012;10.968;2023-01-28T06:06:55;43.53;;;19.77;;
5833;SDS011;2943;48.012;10.968;2023-01-28T06:09:22;34.57;;;17.00;;
5833;SDS011;2943;48.012;10.968;2023-01-28T06:11:48;33.50;;;17.90;;
5833;SDS011;2943;48.012;10.968;2023-01-28T06:14:15;34.53;;;17.37;;
5833;SDS011;2943;48.012;10.968;2023-01-28T06:16:42;36.13;;;18.53;;
5833;SDS011;2943;48.012;10.968;2023-01-28T06:19:09;40.27;;;18.03;;
5833;SDS011;2943;48.012;10.968;2023-01-28T06:21:36;39.07;;;18.20;;
5833;SDS011;2943;48.012;10.968;2023-01-28T06:24:04;38.60;;;18.80;;
5833;SDS011;2943;48.012;10.968;2023-01-28T06:26:31;39.53;;;18.60;;
5833;SDS011;2943;48.012;10.968;2023-01-28T06:28:57;36.27;;;18.70;;
5833;SDS011;2943;48.012;10.968;2023-01-28T06:31:24;41.37;;;21.57;;
5833;SDS011;2943;48.012;10.968;2023-01-28T06:33:51;39.50;;;20.57;;
5833;SDS011;2943;48.012;10.968;2023-01-28T06:36:18;41.13;;;19.30;;
5833;SDS011;2943;48.012;10.968;2023-01-28T06:38:44;35.50;;;19.20;;
5833;SDS011;2943;48.012;10.968;2023-01-28T06:41:12;35.83;;;20.10;;
5833;SDS011;2943;48.012;10.968;2023-01-28T06:43:39;37.17;;;19.40;;
5833;SDS011;2943;48.012;10.968;2023-01-28T06:46:06;35.27;;;18.80;;
5833;SDS011;2943;48.012;10.968;2023-01-28T06:48:33;36.83;;;19.57;;
5833;SDS011;2943;48.012;10.968;2023-01-28T06:50:59;41.70;;;19.87;;
5833;SDS011;2943;48.012;10.968;2023-01-28T06:53:26;41.07;;;19.57;;
5833;SDS011;2943;48.012;10.968;2023-01-28T06:55:53;37.40;;;19.43;;
5833;SDS011;2943;48.012;10.968;2023-01-28T06:58:21;40.27;;;19.57;;
5833;SDS011;2943;48.012;10.968;2023-01-28T07:00:48;36.10;;;17.80;;
5833;SDS011;2943;48.012;10.968;2023-01-28T07:03:14;37.40;;;19.20;;
5833;SDS011;2943;48.012;10.968;2023-01-28T07:05:41;40.53;;;19.33;;
5833;SDS011;2943;48.012;10.968;2023-01-28T07:08:08;36.00;;;19.70;;
5833;SDS011;2943;48.012;10.968;2023-01-28T07:10:34;38.83;;;19.57;;
5833;SDS011;2943;48.012;10.968;2023-01-28T07:13:02;42.67;;;20.03;;
5833;SDS011;2943;48.012;10.968;2023-01-28T07:15:30;41.60;;;20.13;;
5833;SDS011;2943;48.012;10.968;2023-01-28T07:17:57;41.30;;;20.33;;
5833;SDS011;2943;48.012;10.968;2023-01-28T07:20:23;46.40;;;20.97;;
5833;SDS011;2943;48.012;10.968;2023-01-28T07:22:50;42.27;;;22.27;;
5833;SDS011;2943;48.012;10.968;2023-01-28T07:25:17;38.53;;;20.17;;
5833;SDS011;2943;48.012;10.968;2023-01-28T07:27:45;40.00;;;20.33;;
5833;SDS011;2943;48.012;10.968;2023-01-28T07:30:13;41.63;;;21.90;;
5833;SDS011;2943;48.012;10.968;2023-01-28T07:32:42;42.60;;;21.67;;
5833;SDS011;2943;48.012;10.968;2023-01-28T07:35:08;38.93;;;21.13;;
5833;SDS011;2943;48.012;10.968;2023-01-28T07:37:35;41.60;;;22.10;;
5833;SDS011;2943;48.012;10.968;2023-01-28T07:40:03;43.07;;;20.60;;
5833;SDS011;2943;48.012;10.968;2023-01-28T07:42:30;37.97;;;19.10;;
5833;SDS011;2943;48.012;10.968;2023-01-28T07:44:57;35.13;;;18.60;;
5833;SDS011;2943;48.012;10.968;2023-01-28T07:47:24;39.73;;;20.70;;
5833;SDS011;2943;48.012;10.968;2023-01-28T07:49:52;40.73;;;21.93;;
5833;SDS011;2943;48.012;10.968;2023-01-28T07:52:18;40.53;;;20.50;;
5833;SDS011;2943;48.012;10.968;2023-01-28T07:54:45;36.73;;;20.13;;
5833;SDS011;2943;48.012;10.968;2023-01-28T07:57:12;37.93;;;19.40;;
5833;SDS011;2943;48.012;10.968;2023-01-28T07:59:39;37.97;;;19.23;;
5833;SDS011;2943;48.012;10.968;2023-01-28T08:02:08;49.20;;;23.50;;
5833;SDS011;2943;48.012;10.968;2023-01-28T08:04:36;39.20;;;19.63;;
5833;SDS011;2943;48.012;10.968;2023-01-28T08:07:05;45.30;;;19.40;;
5833;SDS011;2943;48.012;10.968;2023-01-28T08:09:32;37.83;;;18.53;;
5833;SDS011;2943;48.012;10.968;2023-01-28T08:12:00;40.30;;;19.43;;
5833;SDS011;2943;48.012;10.968;2023-01-28T08:14:27;38.70;;;20.03;;
5833;SDS011;2943;48.012;10.968;2023-01-28T08:16:54;27.23;;;16.07;;
5833;SDS011;2943;48.012;10.968;2023-01-28T08:19:22;36.83;;;18.70;;
5833;SDS011;2943;48.012;10.968;2023-01-28T08:21:49;32.20;;;17.33;;
5833;SDS011;2943;48.012;10.968;2023-01-28T08:24:17;32.10;;;17.97;;
5833;SDS011;2943;48.012;10.968;2023-01-28T08:26:46;35.97;;;18.57;;
5833;SDS011;2943;48.012;10.968;2023-01-28T08:29:13;34.60;;;19.40;;
5833;SDS011;2943;48.012;10.968;2023-01-28T08:31:40;33.63;;;18.07;;
5833;SDS011;2943;48.012;10.968;2023-01-28T08:34:06;33.10;;;18.23;;
5833;SDS011;2943;48.012;10.968;2023-01-28T08:36:33;33.83;;;19.07;;
5833;SDS011;2943;48.012;10.968;2023-01-28T08:39:00;36.17;;;19.40;;
5833;SDS011;2943;48.012;10.968;2023-01-28T08:41:28;34.50;;;17.70;;
5833;SDS011;2943;48.012;10.968;2023-01-28T08:43:55;32.63;;;18.97;;
5833;SDS011;2943;48.012;10.968;2023-01-28T08:46:21;32.00;;;17.23;;
5833;SDS011;2943;48.012;10.968;2023-01-28T08:48:48;31.77;;;18.40;;
5833;SDS011;2943;48.012;10.968;2023-01-28T08:51:16;35.03;;;19.80;;
5833;SDS011;2943;48.012;10.968;2023-01-28T08:53:43;42.73;;;18.97;;
5833;SDS011;2943;48.012;10.968;2023-01-28T08:56:10;32.47;;;17.30;;
5833;SDS011;2943;48.012;10.968;2023-01-28T08:58:39;33.77;;;17.60;;
5833;SDS011;2943;48.012;10.968;2023-01-28T09:01:06;33.83;;;18.63;;
5833;SDS011;2943;48.012;10.968;2023-01-28T09:03:33;29.97;;;18.03;;
5833;SDS011;2943;48.012;10.968;2023-01-28T09:06:00;38.87;;;20.27;;
5833;SDS011;2943;48.012;10.968;2023-01-28T09:08:27;34.00;;;18.73;;
5833;SDS011;2943;48.012;10.968;2023-01-28T09:10:54;32.00;;;17.70;;
5833;SDS011;2943;48.012;10.968;2023-01-28T09:13:21;33.53;;;17.93;;
5833;SDS011;2943;48.012;10.968;2023-01-28T09:15:50;34.67;;;19.90;;
5833;SDS011;2943;48.012;10.968;2023-01-28T09:18:17;35.80;;;19.67;;
5833;SDS011;2943;48.012;10.968;2023-01-28T09:20:43;34.07;;;18.40;;
5833;SDS011;2943;48.012;10.968;2023-01-28T09:23:10;36.90;;;19.30;;
5833;SDS011;2943;48.012;10.968;2023-01-28T09:25:37;37.00;;;19.73;;
5833;SDS011;2943;48.012;10.968;2023-01-28T09:28:04;37.10;;;19.53;;
5833;SDS011;2943;48.012;10.968;2023-01-28T09:30:31;36.80;;;18.00;;
5833;SDS011;2943;48.012;10.968;2023-01-28T09:33:00;34.43;;;18.30;;
5833;SDS011;2943;48.012;10.968;2023-01-28T09:35:27;31.50;;;16.97;;
5833;SDS011;2943;48.012;10.968;2023-01-28T09:37:55;34.90;;;19.40;;
5833;SDS011;2943;48.012;10.968;2023-01-28T09:40:24;31.30;;;18.30;;
5833;SDS011;2943;48.012;10.968;2023-01-28T09:43:03;28.83;;;16.90;;
5833;SDS011;2943;48.012;10.968;2023-01-28T09:45:42;29.63;;;15.70;;
5833;SDS011;2943;48.012;10.968;2023-01-28T09:48:13;31.83;;;15.93;;
5833;SDS011;2943;48.012;10.968;2023-01-28T09:50:43;28.80;;;16.23;;
5833;SDS011;2943;48.012;10.968;2023-01-28T09:53:15;28.77;;;14.87;;
5833;SDS011;2943;48.012;10.968;2023-01-28T09:55:45;29.10;;;16.03;;
5833;SDS011;2943;48.012;10.968;2023-01-28T09:58:15;32.57;;;15.73;;
5833;SDS011;2943;48.012;10.968;2023-01-28T10:00:44;32.87;;;17.40;;
5833;SDS011;2943;48.012;10.968;2023-01-28T10:03:24;26.67;;;16.20;;
5833;SDS011;2943;48.012;10.968;2023-01-28T10:06:00;31.70;;;16.40;;
5833;SDS011;2943;48.012;10.968;2023-01-28T10:08:55;31.63;;;17.73;;
5833;SDS011;2943;48.012;10.968;2023-01-28T10:11:43;35.00;;;18.13;;
5833;SDS011;2943;48.012;10.968;2023-01-28T10:14:20;30.83;;;17.80;;
5833;SDS011;2943;48.012;10.968;2023-01-28T10:16:56;30.67;;;16.80;;
5833;SDS011;2943;48.012;10.968;2023-01-28T10:19:31;32.00;;;17.43;;
5833;SDS011;2943;48.012;10.968;2023-01-28T10:22:03;25.40;;;15.50;;
5833;SDS011;2943;48.012;10.968;2023-01-28T10:24:32;25.90;;;16.40;;
5833;SDS011;2943;48.012;10.968;2023-01-28T10:27:00;30.40;;;16.47;;
5833;SDS011;2943;48.012;10.968;2023-01-28T10:29:30;29.23;;;17.10;;
5833;SDS011;2943;48.012;10.968;2023-01-28T10:32:01;30.40;;;16.03;;
5833;SDS011;2943;48.012;10.968;2023-01-28T10:34:32;24.23;;;13.70;;
5833;SDS011;2943;48.012;10.968;2023-01-28T10:36:59;26.03;;;16.33;;
5833;SDS011;2943;48.012;10.968;2023-01-28T10:39:26;26.27;;;14.97;;
5833;SDS011;2943;48.012;10.968;2023-01-28T10:41:54;26.70;;;15.20;;
5833;SDS011;2943;48.012;10.968;2023-01-28T10:44:25;25.00;;;15.80;;
5833;SDS011;2943;48.012;10.968;2023-01-28T10:46:57;36.27;;;21.43;;
5833;SDS011;2943;48.012;10.968;2023-01-28T10:49:28;30.77;;;15.83;;
5833;SDS011;2943;48.012;10.968;2023-01-28T10:51:58;29.73;;;17.73;;
5833;SDS011;2943;48.012;10.968;2023-01-28T10:54:35;24.60;;;14.90;;
5833;SDS011;2943;48.012;10.968;2023-01-28T10:57:02;22.00;;;13.30;;
5833;SDS011;2943;48.012;10.968;2023-01-28T10:59:36;22.40;;;13.17;;
5833;SDS011;2943;48.012;10.968;2023-01-28T11:02:19;26.43;;;14.20;;
5833;SDS011;2943;48.012;10.968;2023-01-28T11:05:00;24.03;;;14.40;;
5833;SDS011;2943;48.012;10.968;2023-01-28T11:07:31;27.03;;;16.70;;
5833;SDS011;2943;48.012;10.968;2023-01-28T11:09:58;25.00;;;14.63;;
5833;SDS011;2943;48.012;10.968;2023-01-28T11:12:25;21.67;;;13.70;;
5833;SDS011;2943;48.012;10.968;2023-01-28T11:14:55;24.30;;;15.20;;
5833;SDS011;2943;48.012;10.968;2023-01-28T11:17:23;20.60;;;12.10;;
5833;SDS011;2943;48.012;10.968;2023-01-28T11:19:51;21.47;;;12.90;;
5833;SDS011;2943;48.012;10.968;2023-01-28T11:22:22;18.67;;;11.63;;
5833;SDS011;2943;48.012;10.968;2023-01-28T11:24:57;18.67;;;11.90;;
5833;SDS011;2943;48.012;10.968;2023-01-28T11:27:26;17.83;;;11.87;;
5833;SDS011;2943;48.012;10.968;2023-01-28T11:29:55;23.13;;;12.90;;
5833;SDS011;2943;48.012;10.968;2023-01-28T11:32:26;22.73;;;13.77;;
5833;SDS011;2943;48.012;10.968;2023-01-28T11:34:54;21.67;;;13.60;;
5833;SDS011;2943;48.012;10.968;2023-01-28T11:37:23;21.80;;;12.60;;
5833;SDS011;2943;48.012;10.968;2023-01-28T11:40:03;21.37;;;12.20;;
5833;SDS011;2943;48.012;10.968;2023-01-28T11:42:44;20.37;;;12.13;;
5833;SDS011;2943;48.012;10.968;2023-01-28T11:45:13;26.90;;;13.93;;
5833;SDS011;2943;48.012;10.968;2023-01-28T11:47:44;22.37;;;12.90;;
5833;SDS011;2943;48.012;10.968;2023-01-28T11:50:29;23.97;;;14.27;;
5833;SDS011;2943;48.012;10.968;2023-01-28T11:53:16;27.60;;;14.80;;
5833;SDS011;2943;48.012;10.968;2023-01-28T11:56:02;24.53;;;13.80;;
5833;SDS011;2943;48.012;10.968;2023-01-28T11:58:50;22.63;;;14.00;;
5833;SDS011;2943;48.012;10.968;2023-01-28T12:01:27;23.13;;;13.20;;
5833;SDS011;2943;48.012;10.968;2023-01-28T12:04:10;24.07;;;13.60;;
5833;SDS011;2943;48.012;10.968;2023-01-28T12:09:38;20.07;;;13.50;;
5833;SDS011;2943;48.012;10.968;2023-01-28T12:12:21;20.60;;;12.50;;
5833;SDS011;2943;48.012;10.968;2023-01-28T12:18:17;23.70;;;14.03;;
5833;SDS011;2943;48.012;10.968;2023-01-28T12:20:51;26.83;;;15.97;;
5833;SDS011;2943;48.012;10.968;2023-01-28T12:23:34;31.20;;;15.60;;
5833;SDS011;2943;48.012;10.968;2023-01-28T12:26:16;22.20;;;14.23;;
5833;SDS011;2943;48.012;10.968;2023-01-28T12:28:55;22.70;;;13.73;;
5833;SDS011;2943;48.012;10.968;2023-01-28T12:31:36;26.37;;;16.20;;
5833;SDS011;2943;48.012;10.968;2023-01-28T12:37:18;28.70;;;14.10;;
5833;SDS011;2943;48.012;10.968;2023-01-28T12:39:55;26.67;;;15.33;;
5833;SDS011;2943;48.012;10.968;2023-01-28T12:42:31;28.13;;;14.67;;
5833;SDS011;2943;48.012;10.968;2023-01-28T12:45:11;28.80;;;14.83;;
5833;SDS011;2943;48.012;10.968;2023-01-28T12:47:44;23.93;;;14.70;;
5833;SDS011;2943;48.012;10.968;2023-01-28T12:50:15;24.80;;;15.00;;
5833;SDS011;2943;48.012;10.968;2023-01-28T12:52:46;26.80;;;14.90;;
5833;SDS011;2943;48.012;10.968;2023-01-28T12:55:19;32.47;;;16.97;;
5833;SDS011;2943;48.012;10.968;2023-01-28T12:57:55;26.83;;;15.73;;
5833;SDS011;2943;48.012;10.968;2023-01-28T13:00:25;32.70;;;15.70;;
5833;SDS011;2943;48.012;10.968;2023-01-28T13:02:57;22.70;;;14.40;;
5833;SDS011;2943;48.012;10.968;2023-01-28T13:05:35;24.13;;;14.47;;
5833;SDS011;2943;48.012;10.968;2023-01-28T13:08:09;27.67;;;14.40;;
5833;SDS011;2943;48.012;10.968;2023-01-28T13:10:40;23.03;;;13.60;;
5833;SDS011;2943;48.012;10.968;2023-01-28T13:13:11;22.90;;;12.77;;
5833;SDS011;2943;48.012;10.968;2023-01-28T13:15:44;25.00;;;13.90;;
5833;SDS011;2943;48.012;10.968;2023-01-28T13:18:27;27.33;;;14.20;;
5833;SDS011;2943;48.012;10.968;2023-01-28T13:20:57;24.50;;;14.40;;
5833;SDS011;2943;48.012;10.968;2023-01-28T13:23:25;27.93;;;14.77;;
5833;SDS011;2943;48.012;10.968;2023-01-28T13:26:23;24.20;;;14.07;;
5833;SDS011;2943;48.012;10.968;2023-01-28T13:28:53;22.27;;;13.37;;
5833;SDS011;2943;48.012;10.968;2023-01-28T13:31:36;22.80;;;12.93;;
5833;SDS011;2943;48.012;10.968;2023-01-28T13:34:05;24.80;;;13.73;;
5833;SDS011;2943;48.012;10.968;2023-01-28T13:36:36;25.30;;;15.50;;
5833;SDS011;2943;48.012;10.968;2023-01-28T13:39:05;24.27;;;14.13;;
5833;SDS011;2943;48.012;10.968;2023-01-28T13:41:41;25.33;;;14.47;;
5833;SDS011;2943;48.012;10.968;2023-01-28T13:44:16;20.37;;;13.00;;
5833;SDS011;2943;48.012;10.968;2023-01-28T13:46:46;29.93;;;15.30;;
5833;SDS011;2943;48.012;10.968;2023-01-28T13:49:14;17.85;;;11.73;;
5833;SDS011;2943;48.012;10.968;2023-01-28T13:51:46;22.07;;;12.60;;
5833;SDS011;2943;48.012;10.968;2023-01-28T13:54:21;24.90;;;13.40;;
5833;SDS011;2943;48.012;10.968;2023-01-28T13:56:54;27.80;;;13.50;;
5833;SDS011;2943;48.012;10.968;2023-01-28T13:59:37;25.33;;;13.27;;
5833;SDS011;2943;48.012;10.968;2023-01-28T14:02:35;19.43;;;12.47;;
5833;SDS011;2943;48.012;10.968;2023-01-28T14:08:25;19.97;;;12.47;;
5833;SDS011;2943;48.012;10.968;2023-01-28T14:11:22;24.97;;;14.10;;
5833;SDS011;2943;48.012;10.968;2023-01-28T14:14:23;23.90;;;14.53;;
5833;SDS011;2943;48.012;10.968;2023-01-28T14:17:05;23.60;;;14.80;;
5833;SDS011;2943;48.012;10.968;2023-01-28T14:19:43;22.63;;;14.23;;
5833;SDS011;2943;48.012;10.968;2023-01-28T14:22:12;22.47;;;13.47;;
5833;SDS011;2943;48.012;10.968;2023-01-28T14:24:42;20.50;;;12.83;;
5833;SDS011;2943;48.012;10.968;2023-01-28T14:27:11;17.40;;;11.40;;
5833;SDS011;2943;48.012;10.968;2023-01-28T14:29:48;19.77;;;12.73;;
5833;SDS011;2943;48.012;10.968;2023-01-28T14:32:25;20.10;;;12.90;;
5833;SDS011;2943;48.012;10.968;2023-01-28T14:34:58;19.90;;;12.47;;
5833;SDS011;2943;48.012;10.968;2023-01-28T14:37:27;21.50;;;12.90;;
5833;SDS011;2943;48.012;10.968;2023-01-28T14:39:57;22.10;;;13.90;;
5833;SDS011;2943;48.012;10.968;2023-01-28T14:42:26;23.90;;;13.97;;
5833;SDS011;2943;48.012;10.968;2023-01-28T14:45:00;22.53;;;12.93;;
5833;SDS011;2943;48.012;10.968;2023-01-28T14:47:46;23.03;;;14.50;;
5833;SDS011;2943;48.012;10.968;2023-01-28T14:50:35;24.20;;;13.17;;
5833;SDS011;2943;48.012;10.968;2023-01-28T14:53:42;19.20;;;12.33;;
5833;SDS011;2943;48.012;10.968;2023-01-28T14:56:21;21.37;;;13.07;;
5833;SDS011;2943;48.012;10.968;2023-01-28T14:58:58;32.20;;;15.60;;
5833;SDS011;2943;48.012;10.968;2023-01-28T15:01:27;27.43;;;15.80;;
5833;SDS011;2943;48.012;10.968;2023-01-28T15:03:55;27.63;;;15.93;;
5833;SDS011;2943;48.012;10.968;2023-01-28T15:06:24;35.30;;;18.23;;
5833;SDS011;2943;48.012;10.968;2023-01-28T15:09:04;32.43;;;18.50;;